sensor_id;sensor_type;location;lat;lon;timestamp;pressure;altitude;pressure_sealevel;temperature;humidity
35307;BME280;21420;52.196;21.416;2023-11-19T00:01:34;100874.73;;;0.25;73.39
35307;BME280;21420;52.196;21.416;2023-11-19T00:04:01;100874.58;;;0.26;73.34
35307;BME280;21420;52.196;21.416;2023-11-19T00:06:28;100870.42;;;0.25;73.39
35307;BME280;21420;52.196;21.416;2023-11-19T00:08:55;100869.34;;;0.25;73.36
35307;BME280;21420;52.196;21.416;2023-11-19T00:11:27;100869.91;;;0.29;73.49
35307;BME280;21420;52.196;21.416;2023-11-19T00:13:54;100871.52;;;0.33;73.59
35307;BME280;21420;52.196;21.416;2023-11-19T00:16:20;100873.06;;;0.37;73.66
35307;BME280;21420;52.196;21.416;2023-11-19T00:18:47;100877.10;;;0.43;73.67
35307;BME280;21420;52.196;21.416;2023-11-19T00:21:16;100877.21;;;0.50;73.76
35307;BME280;21420;52.196;21.416;2023-11-19T00:23:42;100876.17;;;0.54;73.82
35307;BME280;21420;52.196;21.416;2023-11-19T00:26:09;100884.71;;;0.57;73.79
35307;BME280;21420;52.196;21.416;2023-11-19T00:28:39;100886.73;;;0.61;73.85
35307;BME280;21420;52.196;21.416;2023-11-19T00:31:05;100884.31;;;0.66;73.76
35307;BME280;21420;52.196;21.416;2023-11-19T00:33:32;100876.77;;;0.68;73.79
35307;BME280;21420;52.196;21.416;2023-11-19T00:35:59;100871.23;;;0.68;73.68
35307;BME280;21420;52.196;21.416;2023-11-19T00:38:26;100866.13;;;0.71;73.64
35307;BME280;21420;52.196;21.416;2023-11-19T00:40:52;100862.46;;;0.73;73.71
35307;BME280;21420;52.196;21.416;2023-11-19T00:43:19;100858.89;;;0.77;73.77
35307;BME280;21420;52.196;21.416;2023-11-19T00:45:48;100852.52;;;0.79;73.68
35307;BME280;21420;52.196;21.416;2023-11-19T00:48:17;100849.20;;;0.80;73.70
35307;BME280;21420;52.196;21.416;2023-11-19T00:50:44;100845.27;;;0.80;73.69
35307;BME280;21420;52.196;21.416;2023-11-19T00:53:12;100838.40;;;0.79;73.69
35307;BME280;21420;52.196;21.416;2023-11-19T00:55:38;100829.79;;;0.73;73.62
35307;BME280;21420;52.196;21.416;2023-11-19T00:58:13;100822.71;;;0.70;73.47
35307;BME280;21420;52.196;21.416;2023-11-19T01:00:39;100822.23;;;0.71;73.70
35307;BME280;21420;52.196;21.416;2023-11-19T01:03:06;100822.44;;;0.70;73.53
35307;BME280;21420;52.196;21.416;2023-11-19T01:05:34;100826.21;;;0.62;73.30
35307;BME280;21420;52.196;21.416;2023-11-19T01:08:01;100827.52;;;0.65;73.44
35307;BME280;21420;52.196;21.416;2023-11-19T01:10:28;100823.73;;;0.63;73.43
35307;BME280;21420;52.196;21.416;2023-11-19T01:12:55;100822.52;;;0.60;73.32
35307;BME280;21420;52.196;21.416;2023-11-19T01:15:22;100824.44;;;0.57;73.37
35307;BME280;21420;52.196;21.416;2023-11-19T01:17:49;100820.85;;;0.53;73.31
35307;BME280;21420;52.196;21.416;2023-11-19T01:20:19;100819.73;;;0.53;73.46
35307;BME280;21420;52.196;21.416;2023-11-19T01:22:47;100813.45;;;0.56;73.53
35307;BME280;21420;52.196;21.416;2023-11-19T01:25:16;100809.66;;;0.59;73.48
35307;BME280;21420;52.196;21.416;2023-11-19T01:27:43;100807.16;;;0.66;73.62
35307;BME280;21420;52.196;21.416;2023-11-19T01:30:11;100802.50;;;0.72;73.73
35307;BME280;21420;52.196;21.416;2023-11-19T01:32:40;100785.52;;;0.72;73.51
35307;BME280;21420;52.196;21.416;2023-11-19T01:35:07;100780.89;;;0.73;73.56
35307;BME280;21420;52.196;21.416;2023-11-19T01:37:37;100780.59;;;0.77;73.73
35307;BME280;21420;52.196;21.416;2023-11-19T01:40:04;100777.59;;;0.80;73.54
35307;BME280;21420;52.196;21.416;2023-11-19T01:42:39;100781.14;;;0.79;73.50
35307;BME280;21420;52.196;21.416;2023-11-19T01:45:08;100778.09;;;0.81;73.75
35307;BME280;21420;52.196;21.416;2023-11-19T01:47:36;100779.27;;;0.81;73.71
35307;BME280;21420;52.196;21.416;2023-11-19T01:50:06;100775.79;;;0.74;73.53
35307;BME280;21420;52.196;21.416;2023-11-19T01:52:34;100773.13;;;0.72;73.46
35307;BME280;21420;52.196;21.416;2023-11-19T01:55:07;100773.23;;;0.72;73.52
35307;BME280;21420;52.196;21.416;2023-11-19T01:57:36;100766.46;;;0.77;73.67
35307;BME280;21420;52.196;21.416;2023-11-19T02:00:08;100765.65;;;0.76;73.67
35307;BME280;21420;52.196;21.416;2023-11-19T02:02:43;100760.02;;;0.71;73.47
35307;BME280;21420;52.196;21.416;2023-11-19T02:05:11;100752.09;;;0.72;73.37
35307;BME280;21420;52.196;21.416;2023-11-19T02:07:39;100751.52;;;0.76;73.52
35307;BME280;21420;52.196;21.416;2023-11-19T02:10:07;100742.98;;;0.81;73.61
35307;BME280;21420;52.196;21.416;2023-11-19T02:12:34;100737.18;;;0.85;73.65
35307;BME280;21420;52.196;21.416;2023-11-19T02:15:03;100732.15;;;0.84;73.59
35307;BME280;21420;52.196;21.416;2023-11-19T02:17:30;100728.05;;;0.83;73.58
35307;BME280;21420;52.196;21.416;2023-11-19T02:20:05;100725.52;;;0.83;73.67
35307;BME280;21420;52.196;21.416;2023-11-19T02:22:38;100723.13;;;0.79;73.59
35307;BME280;21420;52.196;21.416;2023-11-19T02:25:07;100722.89;;;0.75;73.48
35307;BME280;21420;52.196;21.416;2023-11-19T02:30:23;100726.35;;;0.77;73.63
35307;BME280;21420;52.196;21.416;2023-11-19T02:32:57;100721.56;;;0.79;73.60
35307;BME280;21420;52.196;21.416;2023-11-19T02:35:25;100715.95;;;0.77;73.55
35307;BME280;21420;52.196;21.416;2023-11-19T02:37:58;100714.26;;;0.75;73.51
35307;BME280;21420;52.196;21.416;2023-11-19T02:40:30;100712.20;;;0.74;73.54
35307;BME280;21420;52.196;21.416;2023-11-19T02:42:57;100706.71;;;0.76;73.51
35307;BME280;21420;52.196;21.416;2023-11-19T02:45:25;100704.23;;;0.73;73.39
35307;BME280;21420;52.196;21.416;2023-11-19T02:47:54;100702.64;;;0.69;73.31
35307;BME280;21420;52.196;21.416;2023-11-19T02:50:22;100696.83;;;0.70;73.46
35307;BME280;21420;52.196;21.416;2023-11-19T02:52:54;100694.52;;;0.73;73.47
35307;BME280;21420;52.196;21.416;2023-11-19T02:55:23;100692.30;;;0.75;73.58
35307;BME280;21420;52.196;21.416;2023-11-19T02:57:51;100694.37;;;0.75;73.44
35307;BME280;21420;52.196;21.416;2023-11-19T03:00:21;100691.29;;;0.75;73.43
35307;BME280;21420;52.196;21.416;2023-11-19T03:02:58;100687.85;;;0.77;73.51
35307;BME280;21420;52.196;21.416;2023-11-19T03:05:26;100682.80;;;0.80;73.48
35307;BME280;21420;52.196;21.416;2023-11-19T03:07:56;100676.80;;;0.78;73.45
35307;BME280;21420;52.196;21.416;2023-11-19T03:10:24;100676.30;;;0.76;73.51
35307;BME280;21420;52.196;21.416;2023-11-19T03:12:51;100673.90;;;0.79;73.46
35307;BME280;21420;52.196;21.416;2023-11-19T03:15:17;100669.69;;;0.78;73.56
35307;BME280;21420;52.196;21.416;2023-11-19T03:18:05;100665.42;;;0.77;73.57
35307;BME280;21420;52.196;21.416;2023-11-19T03:20:32;100662.27;;;0.73;73.48
35307;BME280;21420;52.196;21.416;2023-11-19T03:22:59;100661.53;;;0.63;73.25
35307;BME280;21420;52.196;21.416;2023-11-19T03:25:28;100664.13;;;0.55;73.16
35307;BME280;21420;52.196;21.416;2023-11-19T03:28:00;100660.98;;;0.54;73.19
35307;BME280;21420;52.196;21.416;2023-11-19T03:30:29;100655.85;;;0.49;73.17
35307;BME280;21420;52.196;21.416;2023-11-19T03:33:00;100653.25;;;0.47;73.25
35307;BME280;21420;52.196;21.416;2023-11-19T03:35:28;100645.75;;;0.43;73.11
35307;BME280;21420;52.196;21.416;2023-11-19T03:37:56;100644.45;;;0.42;73.33
35307;BME280;21420;52.196;21.416;2023-11-19T03:40:23;100643.92;;;0.46;73.44
35307;BME280;21420;52.196;21.416;2023-11-19T03:42:52;100636.29;;;0.49;73.34
35307;BME280;21420;52.196;21.416;2023-11-19T03:45:19;100628.03;;;0.47;73.33
35307;BME280;21420;52.196;21.416;2023-11-19T03:47:46;100619.23;;;0.43;73.30
35307;BME280;21420;52.196;21.416;2023-11-19T03:50:12;100617.80;;;0.45;73.37
35307;BME280;21420;52.196;21.416;2023-11-19T03:52:42;100615.52;;;0.43;73.32
35307;BME280;21420;52.196;21.416;2023-11-19T03:55:10;100613.77;;;0.36;73.20
35307;BME280;21420;52.196;21.416;2023-11-19T03:57:39;100611.08;;;0.34;73.24
35307;BME280;21420;52.196;21.416;2023-11-19T04:00:06;100613.66;;;0.37;73.39
35307;BME280;21420;52.196;21.416;2023-11-19T04:02:40;100614.88;;;0.44;73.59
35307;BME280;21420;52.196;21.416;2023-11-19T04:05:07;100613.24;;;0.51;73.60
35307;BME280;21420;52.196;21.416;2023-11-19T04:07:34;100611.42;;;0.57;73.66
35307;BME280;21420;52.196;21.416;2023-11-19T04:10:01;100603.35;;;0.58;73.52
35307;BME280;21420;52.196;21.416;2023-11-19T04:12:29;100591.63;;;0.53;73.32
35307;BME280;21420;52.196;21.416;2023-11-19T04:14:56;100590.34;;;0.52;73.49
35307;BME280;21420;52.196;21.416;2023-11-19T04:17:26;100586.23;;;0.53;73.57
35307;BME280;21420;52.196;21.416;2023-11-19T04:19:54;100583.77;;;0.53;73.53
35307;BME280;21420;52.196;21.416;2023-11-19T04:22:22;100577.56;;;0.52;73.56
35307;BME280;21420;52.196;21.416;2023-11-19T04:24:50;100576.11;;;0.51;73.44
35307;BME280;21420;52.196;21.416;2023-11-19T04:27:17;100574.63;;;0.45;73.21
35307;BME280;21420;52.196;21.416;2023-11-19T04:29:44;100569.49;;;0.42;73.34
35307;BME280;21420;52.196;21.416;2023-11-19T04:32:12;100565.81;;;0.36;73.28
35307;BME280;21420;52.196;21.416;2023-11-19T04:34:39;100564.20;;;0.41;73.55
35307;BME280;21420;52.196;21.416;2023-11-19T04:37:05;100560.54;;;0.40;73.48
35307;BME280;21420;52.196;21.416;2023-11-19T04:39:35;100555.34;;;0.34;73.39
35307;BME280;21420;52.196;21.416;2023-11-19T04:42:04;100550.06;;;0.33;73.38
35307;BME280;21420;52.196;21.416;2023-11-19T04:44:31;100545.27;;;0.35;73.54
35307;BME280;21420;52.196;21.416;2023-11-19T04:46:57;100545.40;;;0.40;73.63
35307;BME280;21420;52.196;21.416;2023-11-19T04:49:25;100542.67;;;0.45;73.76
35307;BME280;21420;52.196;21.416;2023-11-19T04:51:54;100532.20;;;0.41;73.58
35307;BME280;21420;52.196;21.416;2023-11-19T04:54:21;100526.25;;;0.36;73.43
35307;BME280;21420;52.196;21.416;2023-11-19T04:56:48;100518.77;;;0.35;73.42
35307;BME280;21420;52.196;21.416;2023-11-19T04:59:15;100509.55;;;0.37;73.51
35307;BME280;21420;52.196;21.416;2023-11-19T05:01:46;100503.58;;;0.38;73.63
35307;BME280;21420;52.196;21.416;2023-11-19T05:04:13;100497.64;;;0.35;73.51
35307;BME280;21420;52.196;21.416;2023-11-19T05:06:41;100494.08;;;0.31;73.49
35307;BME280;21420;52.196;21.416;2023-11-19T05:09:08;100483.29;;;0.29;73.48
35307;BME280;21420;52.196;21.416;2023-11-19T05:11:35;100477.39;;;0.36;73.76
35307;BME280;21420;52.196;21.416;2023-11-19T05:14:02;100480.10;;;0.46;73.88
35307;BME280;21420;52.196;21.416;2023-11-19T05:16:32;100479.04;;;0.52;73.89
35307;BME280;21420;52.196;21.416;2023-11-19T05:18:59;100484.08;;;0.45;73.59
35307;BME280;21420;52.196;21.416;2023-11-19T05:21:26;100483.10;;;0.35;73.56
35307;BME280;21420;52.196;21.416;2023-11-19T05:23:53;100479.85;;;0.29;73.60
35307;BME280;21420;52.196;21.416;2023-11-19T05:26:22;100480.90;;;0.24;73.43
35307;BME280;21420;52.196;21.416;2023-11-19T05:28:50;100479.97;;;0.21;73.43
35307;BME280;21420;52.196;21.416;2023-11-19T05:31:17;100478.90;;;0.19;73.61
35307;BME280;21420;52.196;21.416;2023-11-19T05:33:45;100475.34;;;0.17;73.55
35307;BME280;21420;52.196;21.416;2023-11-19T05:36:12;100473.83;;;0.16;73.43
35307;BME280;21420;52.196;21.416;2023-11-19T05:38:39;100475.15;;;0.22;73.76
35307;BME280;21420;52.196;21.416;2023-11-19T05:41:06;100478.08;;;0.33;73.97
35307;BME280;21420;52.196;21.416;2023-11-19T05:43:33;100480.35;;;0.37;74.00
35307;BME280;21420;52.196;21.416;2023-11-19T05:46:00;100484.88;;;0.41;73.89
35307;BME280;21420;52.196;21.416;2023-11-19T05:48:28;100489.64;;;0.43;74.00
35307;BME280;21420;52.196;21.416;2023-11-19T05:50:55;100491.20;;;0.45;73.90
35307;BME280;21420;52.196;21.416;2023-11-19T05:53:22;100487.70;;;0.45;73.83
35307;BME280;21420;52.196;21.416;2023-11-19T05:55:49;100485.65;;;0.41;73.68
35307;BME280;21420;52.196;21.416;2023-11-19T05:58:25;100479.70;;;0.36;73.60
35307;BME280;21420;52.196;21.416;2023-11-19T06:00:52;100473.73;;;0.35;73.80
35307;BME280;21420;52.196;21.416;2023-11-19T06:03:19;100468.77;;;0.37;73.83
35307;BME280;21420;52.196;21.416;2023-11-19T06:05:49;100462.56;;;0.36;73.65
35307;BME280;21420;52.196;21.416;2023-11-19T06:08:16;100468.88;;;0.36;73.72
35307;BME280;21420;52.196;21.416;2023-11-19T06:10:44;100473.41;;;0.41;73.96
35307;BME280;21420;52.196;21.416;2023-11-19T06:13:13;100474.82;;;0.43;73.90
35307;BME280;21420;52.196;21.416;2023-11-19T06:15:42;100475.55;;;0.38;73.71
35307;BME280;21420;52.196;21.416;2023-11-19T06:18:09;100470.60;;;0.39;73.87
35307;BME280;21420;52.196;21.416;2023-11-19T06:20:38;100469.38;;;0.45;73.99
35307;BME280;21420;52.196;21.416;2023-11-19T06:23:08;100469.23;;;0.46;73.92
35307;BME280;21420;52.196;21.416;2023-11-19T06:25:35;100467.93;;;0.45;73.79
35307;BME280;21420;52.196;21.416;2023-11-19T06:28:02;100458.66;;;0.47;73.81
35307;BME280;21420;52.196;21.416;2023-11-19T06:30:30;100452.36;;;0.47;73.81
35307;BME280;21420;52.196;21.416;2023-11-19T06:32:59;100454.61;;;0.42;73.85
35307;BME280;21420;52.196;21.416;2023-11-19T06:35:27;100453.04;;;0.39;73.76
35307;BME280;21420;52.196;21.416;2023-11-19T06:37:55;100452.55;;;0.37;73.79
35307;BME280;21420;52.196;21.416;2023-11-19T06:40:22;100456.05;;;0.36;73.84
35307;BME280;21420;52.196;21.416;2023-11-19T06:42:49;100457.98;;;0.39;73.86
35307;BME280;21420;52.196;21.416;2023-11-19T06:45:19;100452.98;;;0.39;73.81
35307;BME280;21420;52.196;21.416;2023-11-19T06:47:45;100451.17;;;0.42;73.92
35307;BME280;21420;52.196;21.416;2023-11-19T06:50:12;100445.23;;;0.41;73.82
35307;BME280;21420;52.196;21.416;2023-11-19T06:52:39;100443.58;;;0.46;73.89
35307;BME280;21420;52.196;21.416;2023-11-19T06:55:07;100437.38;;;0.47;73.93
35307;BME280;21420;52.196;21.416;2023-11-19T06:57:35;100432.35;;;0.42;73.84
35307;BME280;21420;52.196;21.416;2023-11-19T07:00:02;100425.72;;;0.37;73.78
35307;BME280;21420;52.196;21.416;2023-11-19T07:02:29;100421.14;;;0.34;73.78
35307;BME280;21420;52.196;21.416;2023-11-19T07:04:57;100418.16;;;0.32;73.75
35307;BME280;21420;52.196;21.416;2023-11-19T07:07:24;100416.44;;;0.31;73.84
35307;BME280;21420;52.196;21.416;2023-11-19T07:09:50;100411.97;;;0.31;73.83
35307;BME280;21420;52.196;21.416;2023-11-19T07:12:17;100410.35;;;0.29;73.87
35307;BME280;21420;52.196;21.416;2023-11-19T07:14:44;100405.66;;;0.27;73.67
35307;BME280;21420;52.196;21.416;2023-11-19T07:17:10;100399.13;;;0.28;73.79
35307;BME280;21420;52.196;21.416;2023-11-19T07:19:37;100394.77;;;0.31;73.86
35307;BME280;21420;52.196;21.416;2023-11-19T07:22:05;100391.94;;;0.36;73.95
35307;BME280;21420;52.196;21.416;2023-11-19T07:24:33;100388.27;;;0.41;73.93
35307;BME280;21420;52.196;21.416;2023-11-19T07:27:00;100389.84;;;0.46;74.04
35307;BME280;21420;52.196;21.416;2023-11-19T07:29:27;100388.13;;;0.49;73.97
35307;BME280;21420;52.196;21.416;2023-11-19T07:31:55;100387.15;;;0.54;74.04
35307;BME280;21420;52.196;21.416;2023-11-19T07:34:24;100384.94;;;0.53;73.88
35307;BME280;21420;52.196;21.416;2023-11-19T07:36:51;100384.45;;;0.52;74.00
35307;BME280;21420;52.196;21.416;2023-11-19T07:39:19;100385.86;;;0.52;73.83
35307;BME280;21420;52.196;21.416;2023-11-19T07:41:47;100381.92;;;0.51;73.83
35307;BME280;21420;52.196;21.416;2023-11-19T07:44:14;100373.25;;;0.50;73.82
35307;BME280;21420;52.196;21.416;2023-11-19T07:46:41;100372.23;;;0.49;73.88
35307;BME280;21420;52.196;21.416;2023-11-19T07:49:09;100371.19;;;0.50;73.86
35307;BME280;21420;52.196;21.416;2023-11-19T07:51:36;100363.27;;;0.49;73.82
35307;BME280;21420;52.196;21.416;2023-11-19T07:54:03;100364.30;;;0.47;73.83
35307;BME280;21420;52.196;21.416;2023-11-19T07:56:32;100362.26;;;0.48;73.96
35307;BME280;21420;52.196;21.416;2023-11-19T07:58:58;100354.92;;;0.46;73.86
35307;BME280;21420;52.196;21.416;2023-11-19T08:01:25;100353.63;;;0.43;73.75
35307;BME280;21420;52.196;21.416;2023-11-19T08:03:52;100350.66;;;0.43;73.77
35307;BME280;21420;52.196;21.416;2023-11-19T08:06:21;100351.59;;;0.49;73.93
35307;BME280;21420;52.196;21.416;2023-11-19T08:08:48;100349.33;;;0.51;74.04
35307;BME280;21420;52.196;21.416;2023-11-19T08:11:15;100349.70;;;0.50;73.95
35307;BME280;21420;52.196;21.416;2023-11-19T08:13:41;100346.09;;;0.55;74.04
35307;BME280;21420;52.196;21.416;2023-11-19T08:16:09;100346.89;;;0.65;74.09
35307;BME280;21420;52.196;21.416;2023-11-19T08:18:36;100343.92;;;0.70;74.00
35307;BME280;21420;52.196;21.416;2023-11-19T08:21:03;100337.79;;;0.68;73.87
35307;BME280;21420;52.196;21.416;2023-11-19T08:23:31;100332.13;;;0.66;73.92
35307;BME280;21420;52.196;21.416;2023-11-19T08:25:58;100327.42;;;0.65;73.85
35307;BME280;21420;52.196;21.416;2023-11-19T08:28:25;100319.56;;;0.63;73.89
35307;BME280;21420;52.196;21.416;2023-11-19T08:30:51;100314.61;;;0.63;73.93
35307;BME280;21420;52.196;21.416;2023-11-19T08:33:18;100310.23;;;0.63;73.86
35307;BME280;21420;52.196;21.416;2023-11-19T08:35:45;100308.72;;;0.67;73.91
35307;BME280;21420;52.196;21.416;2023-11-19T08:38:13;100300.67;;;0.74;73.98
35307;BME280;21420;52.196;21.416;2023-11-19T08:40:40;100298.50;;;0.85;73.97
35307;BME280;21420;52.196;21.416;2023-11-19T08:43:09;100297.31;;;0.89;74.01
35307;BME280;21420;52.196;21.416;2023-11-19T08:45:35;100295.09;;;0.93;74.03
35307;BME280;21420;52.196;21.416;2023-11-19T08:48:03;100298.31;;;0.97;73.91
35307;BME280;21420;52.196;21.416;2023-11-19T08:50:29;100296.33;;;0.96;73.91
35307;BME280;21420;52.196;21.416;2023-11-19T08:52:56;100295.37;;;0.96;73.99
35307;BME280;21420;52.196;21.416;2023-11-19T08:55:23;100284.13;;;0.98;73.91
35307;BME280;21420;52.196;21.416;2023-11-19T08:57:49;100276.08;;;0.99;73.87
35307;BME280;21420;52.196;21.416;2023-11-19T09:00:16;100269.29;;;1.00;73.83
35307;BME280;21420;52.196;21.416;2023-11-19T09:02:44;100267.29;;;1.01;73.79
35307;BME280;21420;52.196;21.416;2023-11-19T09:05:11;100271.34;;;1.03;73.90
35307;BME280;21420;52.196;21.416;2023-11-19T09:07:39;100268.58;;;1.04;73.89
35307;BME280;21420;52.196;21.416;2023-11-19T09:10:06;100266.96;;;1.06;73.91
35307;BME280;21420;52.196;21.416;2023-11-19T09:12:35;100268.77;;;1.15;74.00
35307;BME280;21420;52.196;21.416;2023-11-19T09:15:02;100265.02;;;1.20;73.94
35307;BME280;21420;52.196;21.416;2023-11-19T09:17:29;100259.27;;;1.16;73.78
35307;BME280;21420;52.196;21.416;2023-11-19T09:19:56;100256.69;;;1.12;73.78
35307;BME280;21420;52.196;21.416;2023-11-19T09:22:23;100253.30;;;1.06;73.80
35307;BME280;21420;52.196;21.416;2023-11-19T09:24:50;100254.77;;;1.04;73.86
35307;BME280;21420;52.196;21.416;2023-11-19T09:27:16;100254.78;;;1.02;73.82
35307;BME280;21420;52.196;21.416;2023-11-19T09:29:43;100253.87;;;1.00;73.78
35307;BME280;21420;52.196;21.416;2023-11-19T09:32:12;100248.65;;;0.98;73.81
35307;BME280;21420;52.196;21.416;2023-11-19T09:34:39;100248.27;;;0.96;73.82
35307;BME280;21420;52.196;21.416;2023-11-19T09:37:05;100246.71;;;0.96;73.78
35307;BME280;21420;52.196;21.416;2023-11-19T09:39:47;100238.89;;;0.98;73.88
35307;BME280;21420;52.196;21.416;2023-11-19T09:42:14;100238.76;;;1.03;73.94
35307;BME280;21420;52.196;21.416;2023-11-19T09:44:42;100235.90;;;1.05;73.87
35307;BME280;21420;52.196;21.416;2023-11-19T09:47:11;100232.21;;;1.08;73.90
35307;BME280;21420;52.196;21.416;2023-11-19T09:49:39;100224.75;;;1.13;73.93
35307;BME280;21420;52.196;21.416;2023-11-19T09:52:06;100215.67;;;1.16;74.05
35307;BME280;21420;52.196;21.416;2023-11-19T09:54:33;100206.20;;;1.13;73.85
35307;BME280;21420;52.196;21.416;2023-11-19T09:57:01;100197.80;;;1.09;73.69
35307;BME280;21420;52.196;21.416;2023-11-19T09:59:33;100195.00;;;1.09;73.78
35307;BME280;21420;52.196;21.416;2023-11-19T10:01:59;100188.51;;;1.11;73.87
35307;BME280;21420;52.196;21.416;2023-11-19T10:04:29;100183.17;;;1.13;73.91
35307;BME280;21420;52.196;21.416;2023-11-19T10:06:57;100178.64;;;1.11;73.87
35307;BME280;21420;52.196;21.416;2023-11-19T10:09:24;100177.27;;;1.06;73.83
35307;BME280;21420;52.196;21.416;2023-11-19T10:11:51;100170.80;;;1.04;73.75
35307;BME280;21420;52.196;21.416;2023-11-19T10:14:23;100164.75;;;1.03;73.78
35307;BME280;21420;52.196;21.416;2023-11-19T10:16:50;100161.05;;;1.00;73.90
35307;BME280;21420;52.196;21.416;2023-11-19T10:19:20;100159.44;;;1.01;73.83
35307;BME280;21420;52.196;21.416;2023-11-19T10:21:47;100155.27;;;1.03;73.82
35307;BME280;21420;52.196;21.416;2023-11-19T10:24:14;100151.13;;;1.01;73.89
35307;BME280;21420;52.196;21.416;2023-11-19T10:27:01;100149.25;;;0.99;73.80
35307;BME280;21420;52.196;21.416;2023-11-19T10:29:31;100147.20;;;0.99;73.81
35307;BME280;21420;52.196;21.416;2023-11-19T10:31:58;100142.49;;;1.02;73.93
35307;BME280;21420;52.196;21.416;2023-11-19T10:34:45;100139.05;;;1.02;73.87
35307;BME280;21420;52.196;21.416;2023-11-19T10:37:28;100137.05;;;0.99;73.82
35307;BME280;21420;52.196;21.416;2023-11-19T10:39:58;100134.98;;;0.96;73.76
35307;BME280;21420;52.196;21.416;2023-11-19T10:42:25;100131.61;;;0.90;73.60
35307;BME280;21420;52.196;21.416;2023-11-19T10:44:51;100128.60;;;0.86;73.64
35307;BME280;21420;52.196;21.416;2023-11-19T10:47:19;100118.48;;;0.83;73.73
35307;BME280;21420;52.196;21.416;2023-11-19T10:50:04;100116.22;;;0.84;73.78
35307;BME280;21420;52.196;21.416;2023-11-19T10:52:33;100109.48;;;0.83;73.87
35307;BME280;21420;52.196;21.416;2023-11-19T10:55:00;100103.74;;;0.86;73.90
35307;BME280;21420;52.196;21.416;2023-11-19T10:57:30;100101.76;;;0.86;73.88
35307;BME280;21420;52.196;21.416;2023-11-19T11:00:01;100100.15;;;0.82;73.77
35307;BME280;21420;52.196;21.416;2023-11-19T11:02:34;100096.34;;;0.79;73.80
35307;BME280;21420;52.196;21.416;2023-11-19T11:05:02;100097.44;;;0.77;73.78
35307;BME280;21420;52.196;21.416;2023-11-19T11:07:31;100094.47;;;0.76;73.83
35307;BME280;21420;52.196;21.416;2023-11-19T11:10:07;100089.13;;;0.77;73.88
35307;BME280;21420;52.196;21.416;2023-11-19T11:12:37;100085.20;;;0.78;74.00
35307;BME280;21420;52.196;21.416;2023-11-19T11:15:11;100077.27;;;0.77;73.92
35307;BME280;21420;52.196;21.416;2023-11-19T11:17:41;100069.52;;;0.76;73.92
35307;BME280;21420;52.196;21.416;2023-11-19T11:20:10;100069.77;;;0.80;73.88
35307;BME280;21420;52.196;21.416;2023-11-19T11:22:51;100062.22;;;0.79;73.84
35307;BME280;21420;52.196;21.416;2023-11-19T11:25:40;100051.88;;;0.79;73.90
35307;BME280;21420;52.196;21.416;2023-11-19T11:28:36;100043.31;;;0.77;73.83
35307;BME280;21420;52.196;21.416;2023-11-19T11:31:21;100035.33;;;0.75;73.89
35307;BME280;21420;52.196;21.416;2023-11-19T11:36:31;100022.17;;;0.75;73.92
35307;BME280;21420;52.196;21.416;2023-11-19T11:39:01;100020.41;;;0.74;73.94
35307;BME280;21420;52.196;21.416;2023-11-19T11:41:28;100019.08;;;0.74;73.93
35307;BME280;21420;52.196;21.416;2023-11-19T11:43:57;100015.00;;;0.72;74.01
35307;BME280;21420;52.196;21.416;2023-11-19T11:49:02;100002.98;;;0.69;73.89
35307;BME280;21420;52.196;21.416;2023-11-19T11:51:59;99998.46;;;0.67;73.91
35307;BME280;21420;52.196;21.416;2023-11-19T11:54:28;99994.10;;;0.68;73.98
35307;BME280;21420;52.196;21.416;2023-11-19T11:57:10;99986.64;;;0.69;74.00
35307;BME280;21420;52.196;21.416;2023-11-19T12:02:10;99981.60;;;0.67;73.99
35307;BME280;21420;52.196;21.416;2023-11-19T12:04:39;99978.85;;;0.67;73.92
35307;BME280;21420;52.196;21.416;2023-11-19T12:07:08;99971.90;;;0.66;74.00
35307;BME280;21420;52.196;21.416;2023-11-19T12:09:50;99964.79;;;0.66;73.99
35307;BME280;21420;52.196;21.416;2023-11-19T12:12:22;99958.36;;;0.67;73.93
35307;BME280;21420;52.196;21.416;2023-11-19T12:20:04;99950.48;;;0.75;74.18
35307;BME280;21420;52.196;21.416;2023-11-19T12:22:38;99941.10;;;0.82;74.13
35307;BME280;21420;52.196;21.416;2023-11-19T12:25:07;99935.89;;;0.81;74.06
35307;BME280;21420;52.196;21.416;2023-11-19T12:27:46;99929.11;;;0.79;73.88
35307;BME280;21420;52.196;21.416;2023-11-19T12:30:26;99924.07;;;0.77;73.91
35307;BME280;21420;52.196;21.416;2023-11-19T12:32:53;99923.89;;;0.79;73.98
35307;BME280;21420;52.196;21.416;2023-11-19T12:35:22;99919.23;;;0.83;74.04
35307;BME280;21420;52.196;21.416;2023-11-19T12:37:51;99913.18;;;0.83;74.07
35307;BME280;21420;52.196;21.416;2023-11-19T12:40:23;99911.10;;;0.79;73.95
35307;BME280;21420;52.196;21.416;2023-11-19T12:42:51;99909.35;;;0.76;73.80
35307;BME280;21420;52.196;21.416;2023-11-19T12:45:19;99904.39;;;0.75;73.94
35307;BME280;21420;52.196;21.416;2023-11-19T12:47:47;99903.54;;;0.76;73.96
35307;BME280;21420;52.196;21.416;2023-11-19T12:50:16;99899.77;;;0.75;74.01
35307;BME280;21420;52.196;21.416;2023-11-19T12:52:56;99898.10;;;0.74;74.06
35307;BME280;21420;52.196;21.416;2023-11-19T12:55:25;99893.77;;;0.71;74.05
35307;BME280;21420;52.196;21.416;2023-11-19T12:57:56;99890.58;;;0.71;74.06
35307;BME280;21420;52.196;21.416;2023-11-19T13:00:26;99886.92;;;0.69;73.87
35307;BME280;21420;52.196;21.416;2023-11-19T13:02:55;99881.61;;;0.67;73.97
35307;BME280;21420;52.196;21.416;2023-11-19T13:05:32;99881.02;;;0.66;73.99
35307;BME280;21420;52.196;21.416;2023-11-19T13:08:00;99877.09;;;0.65;73.85
35307;BME280;21420;52.196;21.416;2023-11-19T13:10:28;99876.02;;;0.65;74.00
35307;BME280;21420;52.196;21.416;2023-11-19T13:13:07;99870.17;;;0.61;73.90
35307;BME280;21420;52.196;21.416;2023-11-19T13:15:35;99874.80;;;0.61;74.00